createdAt,value
2017-11-20T00:00:18.412Z,1.07
2017-11-20T00:02:47.231Z,0.85
2017-11-20T00:05:16.312Z,1.01
2017-11-20T00:07:45.252Z,1.43
2017-11-20T00:10:14.075Z,1.49
2017-11-20T00:12:42.902Z,1.83
2017-11-20T00:15:11.763Z,1.10
2017-11-20T00:17:40.433Z,1.12
2017-11-20T00:20:09.213Z,1.12
2017-11-20T00:22:38.184Z,0.60
2017-11-20T00:25:07.040Z,1.14
2017-11-20T00:27:36.693Z,0.94
2017-11-20T00:30:05.722Z,0.83
2017-11-20T00:32:34.592Z,0.89
2017-11-20T00:35:03.564Z,0.95
2017-11-20T00:37:32.331Z,0.92
2017-11-20T00:40:01.189Z,0.80
2017-11-20T00:42:31.214Z,0.62
2017-11-20T00:45:00.067Z,1.04
2017-11-20T00:47:28.813Z,0.75
2017-11-20T00:49:57.621Z,0.54
2017-11-20T00:52:26.365Z,1.03
2017-11-20T00:54:55.184Z,0.93
2017-11-20T00:57:23.907Z,0.75
2017-11-20T00:59:52.547Z,0.96
2017-11-20T01:02:21.377Z,0.90
2017-11-20T01:04:50.174Z,0.92
2017-11-20T01:07:19.467Z,0.66
2017-11-20T01:09:48.241Z,0.88
2017-11-20T01:12:17.282Z,0.92
2017-11-20T01:14:46.185Z,0.94
2017-11-20T01:17:15.135Z,0.64
2017-11-20T01:19:43.936Z,0.55
2017-11-20T01:22:12.855Z,0.70
2017-11-20T01:24:41.591Z,0.67
2017-11-20T01:27:11.274Z,0.16
2017-11-20T01:29:40.004Z,0.52
2017-11-20T01:32:09.673Z,0.28
2017-11-20T01:34:39.250Z,0.41
2017-11-20T01:37:08.099Z,0.67
2017-11-20T01:39:36.799Z,0.53
2017-11-20T01:42:05.597Z,0.51
2017-11-20T01:44:35.649Z,0.31
2017-11-20T01:47:04.698Z,0.26
2017-11-20T01:49:34.860Z,0.26
2017-11-20T01:52:04.872Z,0.26
2017-11-20T01:54:33.523Z,0.38
2017-11-20T01:57:02.626Z,0.90
2017-11-20T01:59:31.550Z,0.93
2017-11-20T02:02:00.571Z,0.69
2017-11-20T02:04:29.388Z,0.79
2017-11-20T02:06:58.217Z,0.24
2017-11-20T02:09:27.170Z,0.61
2017-11-20T02:11:56.552Z,0.79
2017-11-20T02:14:25.361Z,-0.14
2017-11-20T02:16:54.227Z,0.60
2017-11-20T02:19:23.718Z,0.62
2017-11-20T02:21:52.630Z,0.33
2017-11-20T02:24:21.581Z,0.53
2017-11-20T02:26:50.400Z,0.19
2017-11-20T02:29:19.288Z,-0.09
2017-11-20T02:31:49.368Z,-0.16
2017-11-20T02:34:18.125Z,0.14
2017-11-20T02:36:46.783Z,0.33
2017-11-20T02:39:15.561Z,0.33
2017-11-20T02:41:45.239Z,0.44
2017-11-20T02:44:14.017Z,0.46
2017-11-20T02:46:43.000Z,0.66
2017-11-20T02:49:11.848Z,0.84
2017-11-20T02:51:41.297Z,0.51
2017-11-20T02:54:10.199Z,0.40
2017-11-20T02:56:38.940Z,0.51
2017-11-20T02:59:07.883Z,0.65
2017-11-20T03:01:36.917Z,0.05
2017-11-20T03:04:05.905Z,1.10
2017-11-20T03:06:35.707Z,1.00
2017-11-20T03:09:06.171Z,1.15
2017-11-20T03:11:35.937Z,0.98
2017-11-20T03:14:05.826Z,1.11
2017-11-20T03:16:34.562Z,0.96
2017-11-20T03:19:03.357Z,0.76
2017-11-20T03:21:32.156Z,1.10
2017-11-20T03:24:00.945Z,1.14
2017-11-20T03:26:29.796Z,1.21
2017-11-20T03:28:58.755Z,1.12
2017-11-20T03:31:27.817Z,1.26
2017-11-20T03:33:56.523Z,1.02
2017-11-20T03:36:26.279Z,1.28
2017-11-20T03:38:55.356Z,1.30
2017-11-20T03:41:24.898Z,1.58
2017-11-20T03:43:53.603Z,1.44
2017-11-20T03:46:22.445Z,1.02
2017-11-20T03:48:51.278Z,0.95
2017-11-20T03:51:20.190Z,0.94
2017-11-20T03:53:48.979Z,1.15
2017-11-20T03:56:17.781Z,1.20
2017-11-20T03:58:46.485Z,1.28
2017-11-20T04:01:15.221Z,0.65
2017-11-20T04:03:44.040Z,1.57
2017-11-20T04:06:13.801Z,2.21
2017-11-20T04:08:43.325Z,2.22
2017-11-20T04:11:12.135Z,3.38
2017-11-20T04:13:40.837Z,3.44
2017-11-20T04:16:10.352Z,3.56
2017-11-20T04:18:40.102Z,3.73
2017-11-20T04:21:08.912Z,3.78
2017-11-20T04:23:37.895Z,3.93
2017-11-20T04:26:06.908Z,4.04
2017-11-20T04:28:35.621Z,4.21
2017-11-20T04:31:04.336Z,4.17
2017-11-20T04:33:33.422Z,4.24
2017-11-20T04:36:02.245Z,4.18
2017-11-20T04:38:31.014Z,4.48
2017-11-20T04:41:00.585Z,4.53
2017-11-20T04:43:30.078Z,4.75
2017-11-20T04:45:58.952Z,4.70
2017-11-20T04:48:28.597Z,4.93
2017-11-20T04:50:57.628Z,4.83
2017-11-20T04:53:27.885Z,4.92
2017-11-20T04:55:56.634Z,4.93
2017-11-20T04:58:25.493Z,5.20
2017-11-20T05:00:54.160Z,5.16
2017-11-20T05:03:23.185Z,5.13
2017-11-20T05:05:52.631Z,5.30
2017-11-20T05:08:22.077Z,5.33
2017-11-20T05:10:50.733Z,5.13
2017-11-20T05:13:30.129Z,5.17
2017-11-20T05:15:58.924Z,5.27
2017-11-20T05:18:27.750Z,5.39
2017-11-20T05:20:57.324Z,5.21
2017-11-20T05:23:26.784Z,5.38
2017-11-20T05:25:55.475Z,5.54
2017-11-20T05:28:24.298Z,5.57
2017-11-20T05:30:53.156Z,5.52
2017-11-20T05:33:21.833Z,5.35
2017-11-20T05:35:50.656Z,5.42
2017-11-20T05:38:19.404Z,5.47
2017-11-20T05:40:48.199Z,5.42
2017-11-20T05:43:17.249Z,5.39
2017-11-20T05:45:46.205Z,5.46
2017-11-20T05:48:14.953Z,5.49
2017-11-20T05:50:44.335Z,5.47
2017-11-20T05:53:14.143Z,5.51
2017-11-20T05:55:43.133Z,5.62
2017-11-20T05:58:12.195Z,5.60
2017-11-20T06:00:40.931Z,5.54
2017-11-20T06:03:09.960Z,5.72
2017-11-20T06:05:38.909Z,5.66
2017-11-20T06:08:07.704Z,5.70
2017-11-20T06:10:36.494Z,5.64
2017-11-20T06:13:05.304Z,5.63
2017-11-20T06:15:34.169Z,5.51
2017-11-20T06:18:02.918Z,5.37
2017-11-20T06:20:31.794Z,5.34
2017-11-20T06:23:00.936Z,5.39
2017-11-20T06:25:29.613Z,5.53
2017-11-20T06:27:58.380Z,5.60
2017-11-20T06:30:27.453Z,5.28
2017-11-20T06:32:56.297Z,5.39
2017-11-20T06:35:25.083Z,5.39
2017-11-20T06:37:54.694Z,5.34
2017-11-20T06:40:23.552Z,5.44
2017-11-20T06:42:52.297Z,5.66
2017-11-20T06:45:21.076Z,5.63
2017-11-20T06:47:49.803Z,5.63
2017-11-20T06:50:18.782Z,5.46
2017-11-20T06:52:47.774Z,5.62
2017-11-20T06:55:16.532Z,5.69
2017-11-20T06:57:46.482Z,5.89
2017-11-20T07:00:16.986Z,5.65
2017-11-20T07:02:45.992Z,5.96
2017-11-20T07:05:14.891Z,5.80
2017-11-20T07:07:43.653Z,5.75
2017-11-20T07:10:12.991Z,5.84
2017-11-20T07:12:41.738Z,5.95
2017-11-20T07:15:11.631Z,6.03
2017-11-20T07:17:41.178Z,6.01
2017-11-20T07:20:10.740Z,5.90
2017-11-20T07:22:39.931Z,6.01
2017-11-20T07:25:20.554Z,5.83
2017-11-20T07:28:01.201Z,5.85
2017-11-20T07:30:41.902Z,5.92
2017-11-20T07:33:10.803Z,6.01
2017-11-20T07:38:59.732Z,6.17
2017-11-20T07:41:40.226Z,6.29
2017-11-20T07:44:09.143Z,6.43
2017-11-20T07:46:37.943Z,6.46
2017-11-20T07:49:06.891Z,6.64
2017-11-20T07:51:35.642Z,6.69
2017-11-20T07:54:05.198Z,6.85
2017-11-20T07:56:35.124Z,6.81
2017-11-20T07:59:03.866Z,7.24
2017-11-20T08:01:32.640Z,7.55
2017-11-20T08:04:01.441Z,7.40
2017-11-20T08:06:30.268Z,7.45
2017-11-20T08:08:58.981Z,7.57
2017-11-20T08:11:27.753Z,7.61
2017-11-20T08:13:56.918Z,7.53
2017-11-20T08:16:26.234Z,7.28
2017-11-20T08:18:56.954Z,7.00
2017-11-20T08:21:26.290Z,7.16
2017-11-20T08:23:55.050Z,7.29
2017-11-20T08:26:23.920Z,7.37
2017-11-20T08:28:52.785Z,7.32
2017-11-20T08:31:21.637Z,7.54
2017-11-20T08:33:51.136Z,7.58
2017-11-20T08:36:19.895Z,7.58
2017-11-20T08:38:48.898Z,7.89
2017-11-20T08:41:17.737Z,8.05
2017-11-20T08:43:46.448Z,8.14
2017-11-20T08:46:15.336Z,8.31
2017-11-20T08:48:44.248Z,8.50
2017-11-20T08:51:12.995Z,8.50
2017-11-20T08:53:41.937Z,8.66
2017-11-20T08:56:11.116Z,8.68
2017-11-20T08:58:39.879Z,8.38
2017-11-20T09:01:09.439Z,8.26
2017-11-20T09:03:38.100Z,8.06
2017-11-20T09:06:06.886Z,7.98
2017-11-20T09:08:35.704Z,8.41
2017-11-20T09:11:04.521Z,8.34
2017-11-20T09:13:33.585Z,8.42
2017-11-20T09:16:03.365Z,8.80
2017-11-20T09:18:32.683Z,8.73
2017-11-20T09:21:01.789Z,8.77
2017-11-20T09:23:31.072Z,8.97
2017-11-20T09:26:00.552Z,8.80
2017-11-20T09:28:30.175Z,8.93
2017-11-20T09:30:59.012Z,8.80
2017-11-20T09:33:27.721Z,9.37
2017-11-20T09:35:56.725Z,9.01
2017-11-20T09:38:25.554Z,9.24
2017-11-20T09:40:54.469Z,9.35
2017-11-20T09:43:24.239Z,9.39
2017-11-20T09:45:53.353Z,9.25
2017-11-20T09:48:22.072Z,9.27
2017-11-20T09:50:51.004Z,9.18
2017-11-20T09:53:19.943Z,9.21
2017-11-20T09:55:49.686Z,9.31
2017-11-20T09:58:18.524Z,9.73
2017-11-20T10:00:48.088Z,10.02
2017-11-20T10:03:17.045Z,9.81
2017-11-20T10:05:45.840Z,9.76
2017-11-20T10:08:14.952Z,10.03
2017-11-20T10:10:46.057Z,9.86
2017-11-20T10:13:15.152Z,10.06
2017-11-20T10:15:43.980Z,10.06
2017-11-20T10:18:12.853Z,9.72
2017-11-20T10:20:41.742Z,10.52
2017-11-20T10:23:10.739Z,10.53
2017-11-20T10:25:39.599Z,10.02
2017-11-20T10:28:08.456Z,10.53
2017-11-20T10:30:37.134Z,10.54
2017-11-20T10:33:06.070Z,10.58
2017-11-20T10:35:35.243Z,11.59
2017-11-20T10:38:04.101Z,11.58
2017-11-20T10:40:33.131Z,12.61
2017-11-20T10:43:02.352Z,11.65
2017-11-20T10:45:31.622Z,12.05
2017-11-20T10:48:00.586Z,13.97
2017-11-20T10:50:29.821Z,14.48
2017-11-20T10:52:58.553Z,14.59
2017-11-20T10:55:29.832Z,14.34
2017-11-20T10:57:58.855Z,15.18
2017-11-20T11:00:30.517Z,15.23
2017-11-20T11:02:59.268Z,13.66
2017-11-20T11:05:29.116Z,13.24
2017-11-20T11:07:58.516Z,13.11
2017-11-20T11:10:28.394Z,12.27
2017-11-20T11:12:57.807Z,13.25
2017-11-20T11:15:26.779Z,13.03
2017-11-20T11:17:55.778Z,15.24
2017-11-20T11:20:24.518Z,14.12
2017-11-20T11:22:53.402Z,14.18
2017-11-20T11:25:22.387Z,14.60
2017-11-20T11:27:51.362Z,13.80
2017-11-20T11:30:20.194Z,13.25
2017-11-20T11:32:49.359Z,13.56
2017-11-20T11:35:18.084Z,14.37
2017-11-20T11:37:47.729Z,13.49
2017-11-20T11:40:16.523Z,13.61
2017-11-20T11:42:45.587Z,13.96
2017-11-20T11:45:14.732Z,13.38
2017-11-20T11:47:43.966Z,13.25
2017-11-20T11:50:12.765Z,12.47
2017-11-20T11:52:42.406Z,12.46
2017-11-20T11:55:11.863Z,13.73
2017-11-20T11:57:40.925Z,14.40
2017-11-20T12:00:10.354Z,14.09
2017-11-20T12:02:39.342Z,14.89
2017-11-20T12:05:08.270Z,14.10
2017-11-20T12:07:37.567Z,14.33
2017-11-20T12:10:06.425Z,14.92
2017-11-20T12:12:36.076Z,15.60
2017-11-20T12:15:06.476Z,14.21
2017-11-20T12:17:36.263Z,14.10
2017-11-20T12:20:05.179Z,14.41
2017-11-20T12:22:34.108Z,14.33
2017-11-20T12:25:03.048Z,13.92
2017-11-20T12:27:32.732Z,14.77
2017-11-20T12:30:01.729Z,14.48
2017-11-20T12:32:30.863Z,13.85
2017-11-20T12:35:00.180Z,14.63
2017-11-20T12:37:29.114Z,14.68
2017-11-20T12:39:59.172Z,14.10
2017-11-20T12:42:29.267Z,14.61
2017-11-20T12:44:59.219Z,14.77
2017-11-20T12:47:29.219Z,15.13
2017-11-20T12:49:59.116Z,14.89
2017-11-20T12:52:27.962Z,13.42
2017-11-20T12:54:56.848Z,12.65
2017-11-20T12:57:25.933Z,13.11
2017-11-20T12:59:54.760Z,14.01
2017-11-20T13:02:23.959Z,13.43
2017-11-20T13:04:52.929Z,14.73
2017-11-20T13:07:21.860Z,14.65
2017-11-20T13:09:51.367Z,14.49
2017-11-20T13:12:20.900Z,14.45
2017-11-20T13:14:49.761Z,13.65
2017-11-20T13:17:19.617Z,13.27
2017-11-20T13:19:48.623Z,13.22
2017-11-20T13:22:18.538Z,13.97
2017-11-20T13:24:47.442Z,14.16
2017-11-20T13:27:16.290Z,13.71
2017-11-20T13:29:45.063Z,13.96
2017-11-20T13:32:14.086Z,14.00
2017-11-20T13:34:42.902Z,13.38
2017-11-20T13:37:11.689Z,13.65
2017-11-20T13:39:40.634Z,12.91
2017-11-20T13:42:09.458Z,13.05
2017-11-20T13:44:38.276Z,13.61
2017-11-20T13:47:07.136Z,13.80
2017-11-20T13:49:35.867Z,13.29
2017-11-20T13:52:04.966Z,13.34
2017-11-20T13:54:33.847Z,12.74
2017-11-20T13:57:03.597Z,12.36
2017-11-20T13:59:32.497Z,12.61
2017-11-20T14:02:01.663Z,12.13
2017-11-20T14:04:30.621Z,11.75
2017-11-20T14:06:59.592Z,11.42
2017-11-20T14:09:28.600Z,11.50
2017-11-20T14:11:57.555Z,11.43
2017-11-20T14:14:26.516Z,11.31
2017-11-20T14:16:55.850Z,10.96
2017-11-20T14:19:24.828Z,10.64
2017-11-20T14:21:53.828Z,10.81
2017-11-20T14:24:22.722Z,10.47
2017-11-20T14:26:51.673Z,10.94
2017-11-20T14:29:20.438Z,10.62
2017-11-20T14:31:49.727Z,10.47
2017-11-20T14:34:18.532Z,10.58
2017-11-20T14:36:47.485Z,10.58
2017-11-20T14:39:16.492Z,10.36
2017-11-20T14:41:45.506Z,10.56
2017-11-20T14:44:14.360Z,10.33
2017-11-20T14:46:43.271Z,10.27
2017-11-20T14:49:12.226Z,10.27
2017-11-20T14:51:45.492Z,10.31
2017-11-20T14:54:18.512Z,10.45
2017-11-20T14:56:47.485Z,9.80
2017-11-20T14:59:16.397Z,9.74
2017-11-20T15:01:46.205Z,9.59
2017-11-20T15:04:15.224Z,9.38
2017-11-20T15:06:44.068Z,9.56
2017-11-20T15:09:13.808Z,9.01
2017-11-20T15:11:43.518Z,9.35
2017-11-20T15:14:12.716Z,9.02
2017-11-20T15:16:42.664Z,8.97
2017-11-20T15:19:11.540Z,8.91
2017-11-20T15:21:40.400Z,8.74
2017-11-20T15:24:09.286Z,8.67
2017-11-20T15:26:39.050Z,8.58
2017-11-20T15:29:07.995Z,8.68
2017-11-20T15:31:36.898Z,8.71
2017-11-20T15:34:06.288Z,8.75
2017-11-20T15:36:35.251Z,8.41
2017-11-20T15:39:04.215Z,8.48
2017-11-20T15:41:34.014Z,8.50
2017-11-20T15:44:02.731Z,8.49
2017-11-20T15:46:31.499Z,8.92
2017-11-20T15:49:00.544Z,8.56
2017-11-20T15:51:31.043Z,8.71
2017-11-20T15:54:00.499Z,8.59
2017-11-20T15:56:30.488Z,8.78
2017-11-20T15:59:01.419Z,8.65
2017-11-20T16:01:30.823Z,8.66
2017-11-20T16:04:00.481Z,8.72
2017-11-20T16:06:30.363Z,8.67
2017-11-20T16:09:00.482Z,8.80
2017-11-20T16:11:31.091Z,8.58
2017-11-20T16:14:00.448Z,8.61
2017-11-20T16:16:31.255Z,8.75
2017-11-20T16:19:00.725Z,8.84
2017-11-20T16:21:29.581Z,9.04
2017-11-20T16:23:58.546Z,8.57
2017-11-20T16:26:27.443Z,8.81
2017-11-20T16:28:56.372Z,8.68
2017-11-20T16:31:25.205Z,8.50
2017-11-20T16:33:54.927Z,8.61
2017-11-20T16:36:24.586Z,8.45
2017-11-20T16:38:53.639Z,8.60
2017-11-20T16:41:22.932Z,8.56
2017-11-20T16:43:51.729Z,8.60
2017-11-20T16:46:20.517Z,8.04
2017-11-20T16:48:49.611Z,8.31
2017-11-20T16:51:18.691Z,8.25
2017-11-20T16:53:47.634Z,8.27
2017-11-20T16:56:16.662Z,8.30
2017-11-20T16:58:49.673Z,8.17
2017-11-20T17:04:23.132Z,8.05
2017-11-20T17:06:51.966Z,8.25
2017-11-20T17:09:20.850Z,7.80
2017-11-20T17:11:49.669Z,8.13
2017-11-20T17:14:18.612Z,7.89
2017-11-20T17:16:47.363Z,8.14
2017-11-20T17:19:16.224Z,8.25
2017-11-20T17:21:45.049Z,8.04
2017-11-20T17:24:13.786Z,7.98
2017-11-20T17:26:42.589Z,8.13
2017-11-20T17:29:11.633Z,7.99
2017-11-20T17:31:40.427Z,7.87
2017-11-20T17:34:09.168Z,7.77
2017-11-20T17:36:38.210Z,8.13
2017-11-20T17:39:07.247Z,8.05
2017-11-20T17:41:36.382Z,8.19
2017-11-20T17:44:06.969Z,8.04
2017-11-20T17:46:37.058Z,8.04
2017-11-20T17:49:06.490Z,7.77
2017-11-20T17:51:36.416Z,7.88
2017-11-20T17:54:07.169Z,8.10
2017-11-20T17:56:36.722Z,7.93
2017-11-20T17:59:06.827Z,8.06
2017-11-20T18:01:36.661Z,8.14
2017-11-20T18:04:06.525Z,8.19
2017-11-20T18:06:35.363Z,7.85
2017-11-20T18:09:04.667Z,8.08
2017-11-20T18:11:33.582Z,8.21
2017-11-20T18:14:03.542Z,8.34
2017-11-20T18:16:32.651Z,8.07
2017-11-20T18:19:01.627Z,7.95
2017-11-20T18:21:30.558Z,8.05
2017-11-20T18:23:59.598Z,7.92
2017-11-20T18:26:28.623Z,7.93
2017-11-20T18:28:57.627Z,8.18
2017-11-20T18:31:26.807Z,8.34
2017-11-20T18:33:55.559Z,8.20
2017-11-20T18:36:25.243Z,8.32
2017-11-20T18:38:54.230Z,8.53
2017-11-20T18:41:22.988Z,8.44
2017-11-20T18:43:51.983Z,8.30
2017-11-20T18:46:20.968Z,8.02
2017-11-20T18:48:49.769Z,7.96
2017-11-20T18:51:18.616Z,7.47
2017-11-20T18:53:49.122Z,7.80
2017-11-20T18:56:19.071Z,7.88
2017-11-20T18:58:49.167Z,7.69
2017-11-20T19:01:31.060Z,7.22
2017-11-20T19:04:11.757Z,7.57
2017-11-20T19:06:53.016Z,7.65
2017-11-20T19:09:21.911Z,7.53
2017-11-20T19:11:53.467Z,7.77
2017-11-20T19:14:23.807Z,7.80
2017-11-20T19:16:52.749Z,7.76
2017-11-20T19:19:21.471Z,7.22
2017-11-20T19:21:50.381Z,7.30
2017-11-20T19:24:19.600Z,7.31
2017-11-20T19:26:50.085Z,7.31
2017-11-20T19:29:18.994Z,7.47
2017-11-20T19:31:48.808Z,7.16
2017-11-20T19:34:19.596Z,7.27
2017-11-20T19:36:49.588Z,7.39
2017-11-20T19:39:18.968Z,7.59
2017-11-20T19:41:49.146Z,7.32
2017-11-20T19:44:19.685Z,7.36
2017-11-20T19:46:49.847Z,6.93
2017-11-20T19:49:19.192Z,7.19
2017-11-20T19:51:49.053Z,7.26
2017-11-20T19:54:19.483Z,7.15
2017-11-20T19:56:49.182Z,7.23
2017-11-20T19:59:19.319Z,7.23
2017-11-20T20:01:49.304Z,7.26
2017-11-20T20:04:19.882Z,7.47
2017-11-20T20:06:49.225Z,7.22
2017-11-20T20:09:21.124Z,7.08
2017-11-20T20:11:50.375Z,7.28
2017-11-20T20:14:27.130Z,7.27
2017-11-20T20:17:06.164Z,7.31
2017-11-20T20:19:35.052Z,6.99
2017-11-20T20:22:04.137Z,6.83
2017-11-20T20:24:33.305Z,6.96
2017-11-20T20:27:02.256Z,7.16
2017-11-20T20:29:31.174Z,7.07
2017-11-20T20:32:00.925Z,6.99
2017-11-20T20:34:29.958Z,7.05
2017-11-20T20:36:59.214Z,7.13
2017-11-20T20:39:28.284Z,6.73
2017-11-20T20:41:57.444Z,6.79
2017-11-20T20:44:26.664Z,6.80
2017-11-20T20:46:55.560Z,6.75
2017-11-20T20:49:24.925Z,6.65
2017-11-20T20:51:53.687Z,6.74
2017-11-20T20:54:22.394Z,6.55
2017-11-20T20:56:51.319Z,6.48
2017-11-20T20:59:20.196Z,6.32
2017-11-20T21:01:48.914Z,6.28
2017-11-20T21:04:18.791Z,6.29
2017-11-20T21:06:59.359Z,6.42
2017-11-20T21:09:30.450Z,6.58
2017-11-20T21:12:04.856Z,6.58
2017-11-20T21:14:33.606Z,6.73
2017-11-20T21:17:02.304Z,6.43
2017-11-20T21:19:31.436Z,6.51
2017-11-20T21:22:00.148Z,6.43
2017-11-20T21:24:28.902Z,6.37
2017-11-20T21:26:57.757Z,6.31
2017-11-20T21:29:26.936Z,6.28
2017-11-20T21:31:55.797Z,6.49
2017-11-20T21:34:25.489Z,6.19
2017-11-20T21:36:54.255Z,6.22
2017-11-20T21:39:22.973Z,6.46
2017-11-20T21:41:51.827Z,6.55
2017-11-20T21:44:20.764Z,6.52
2017-11-20T21:46:49.574Z,5.94
2017-11-20T21:49:18.514Z,6.17
2017-11-20T21:51:47.228Z,5.96
2017-11-20T21:54:15.994Z,6.22
2017-11-20T21:56:45.097Z,5.97
2017-11-20T21:59:13.944Z,5.97
2017-11-20T22:01:42.938Z,6.08
2017-11-20T22:04:12.083Z,5.97
2017-11-20T22:06:41.171Z,5.87
2017-11-20T22:09:10.187Z,5.82
2017-11-20T22:11:39.107Z,5.95
2017-11-20T22:14:07.788Z,5.97
2017-11-20T22:16:36.693Z,5.90
2017-11-20T22:19:05.731Z,5.81
2017-11-20T22:21:36.195Z,5.99
2017-11-20T22:24:05.416Z,5.82
2017-11-20T22:26:35.244Z,5.92
2017-11-20T22:29:04.272Z,5.77
2017-11-20T22:31:34.070Z,6.22
2017-11-20T22:34:03.504Z,6.07
2017-11-20T22:36:32.237Z,6.20
2017-11-20T22:39:01.877Z,6.07
2017-11-20T22:41:30.606Z,6.27
2017-11-20T22:44:00.215Z,6.15
2017-11-20T22:46:29.076Z,6.12
2017-11-20T22:48:58.006Z,5.95
2017-11-20T22:51:26.948Z,5.75
2017-11-20T22:53:55.632Z,5.85
2017-11-20T22:56:24.493Z,6.04
2017-11-20T22:58:53.247Z,6.16
2017-11-20T23:01:22.149Z,5.92
2017-11-20T23:03:51.028Z,6.12
2017-11-20T23:06:19.797Z,6.29
2017-11-20T23:08:48.642Z,5.84
2017-11-20T23:11:17.474Z,5.93
2017-11-20T23:13:46.724Z,6.13
2017-11-20T23:16:15.601Z,5.86
2017-11-20T23:18:44.312Z,5.59
2017-11-20T23:21:13.074Z,5.76
2017-11-20T23:23:41.971Z,5.74
2017-11-20T23:26:10.666Z,5.93
2017-11-20T23:28:39.427Z,6.15
2017-11-20T23:31:09.061Z,6.18
2017-11-20T23:33:37.963Z,6.13
2017-11-20T23:36:06.714Z,5.68
2017-11-20T23:38:35.650Z,5.79
2017-11-20T23:41:06.520Z,6.12
2017-11-20T23:43:36.773Z,5.65
2017-11-20T23:46:05.729Z,5.62
2017-11-20T23:48:34.445Z,5.96
2017-11-20T23:51:03.243Z,5.77
2017-11-20T23:53:35.150Z,5.90
2017-11-20T23:56:03.960Z,6.08
2017-11-20T23:58:32.742Z,5.81
